sensor_id;sensor_type;location;lat;lon;timestamp;pressure;altitude;pressure_sealevel;temperature;humidity
41334;BME280;27078;46.428;6.256;2023-08-31T00:02:00;96175.53;;;16.03;100.00
41334;BME280;27078;46.428;6.256;2023-08-31T00:04:26;96173.03;;;16.01;100.00
41334;BME280;27078;46.428;6.256;2023-08-31T00:06:51;96179.38;;;16.00;100.00
41334;BME280;27078;46.428;6.256;2023-08-31T00:09:17;96188.88;;;15.95;100.00
41334;BME280;27078;46.428;6.256;2023-08-31T00:11:44;96184.38;;;15.95;100.00
41334;BME280;27078;46.428;6.256;2023-08-31T00:14:10;96184.88;;;15.99;100.00
41334;BME280;27078;46.428;6.256;2023-08-31T00:16:36;96186.34;;;16.01;100.00
41334;BME280;27078;46.428;6.256;2023-08-31T00:19:02;96193.50;;;16.01;100.00
41334;BME280;27078;46.428;6.256;2023-08-31T00:21:27;96199.03;;;15.91;100.00
41334;BME280;27078;46.428;6.256;2023-08-31T00:23:53;96197.03;;;15.93;100.00
41334;BME280;27078;46.428;6.256;2023-08-31T00:26:19;96186.38;;;15.93;100.00
41334;BME280;27078;46.428;6.256;2023-08-31T00:28:45;96187.34;;;16.00;100.00
41334;BME280;27078;46.428;6.256;2023-08-31T00:31:10;96185.81;;;16.06;100.00
41334;BME280;27078;46.428;6.256;2023-08-31T00:33:37;96182.16;;;16.07;100.00
41334;BME280;27078;46.428;6.256;2023-08-31T00:36:03;96186.50;;;16.00;100.00
41334;BME280;27078;46.428;6.256;2023-08-31T00:38:30;96182.38;;;15.97;100.00
41334;BME280;27078;46.428;6.256;2023-08-31T00:40:56;96187.34;;;16.00;100.00
41334;BME280;27078;46.428;6.256;2023-08-31T00:43:21;96177.34;;;16.02;100.00
41334;BME280;27078;46.428;6.256;2023-08-31T00:45:49;96173.38;;;15.98;100.00
41334;BME280;27078;46.428;6.256;2023-08-31T00:48:16;96171.06;;;15.95;100.00
41334;BME280;27078;46.428;6.256;2023-08-31T00:50:46;96178.34;;;16.01;100.00
41334;BME280;27078;46.428;6.256;2023-08-31T00:53:12;96174.03;;;16.00;100.00
41334;BME280;27078;46.428;6.256;2023-08-31T00:55:37;96170.06;;;15.96;100.00
41334;BME280;27078;46.428;6.256;2023-08-31T00:58:06;96162.59;;;15.92;100.00
41334;BME280;27078;46.428;6.256;2023-08-31T01:01:06;96170.34;;;15.78;100.00
41334;BME280;27078;46.428;6.256;2023-08-31T01:06:15;96175.91;;;15.60;100.00
41334;BME280;27078;46.428;6.256;2023-08-31T01:08:50;96180.56;;;15.58;100.00
41334;BME280;27078;46.428;6.256;2023-08-31T01:14:16;96185.88;;;15.58;100.00
41334;BME280;27078;46.428;6.256;2023-08-31T01:16:43;96184.72;;;15.61;100.00
41334;BME280;27078;46.428;6.256;2023-08-31T01:19:22;96182.19;;;15.67;100.00
41334;BME280;27078;46.428;6.256;2023-08-31T01:21:51;96184.28;;;15.80;100.00
41334;BME280;27078;46.428;6.256;2023-08-31T01:24:19;96183.72;;;15.93;100.00
41334;BME280;27078;46.428;6.256;2023-08-31T01:26:46;96181.00;;;16.01;100.00
41334;BME280;27078;46.428;6.256;2023-08-31T01:29:12;96175.03;;;15.99;100.00
41334;BME280;27078;46.428;6.256;2023-08-31T01:31:46;96177.09;;;15.89;100.00
41334;BME280;27078;46.428;6.256;2023-08-31T01:34:33;96165.91;;;15.94;100.00
41334;BME280;27078;46.428;6.256;2023-08-31T01:37:01;96172.13;;;15.86;100.00
41334;BME280;27078;46.428;6.256;2023-08-31T01:39:42;96174.91;;;15.93;100.00
41334;BME280;27078;46.428;6.256;2023-08-31T01:42:12;96178.94;;;15.88;100.00
41334;BME280;27078;46.428;6.256;2023-08-31T01:44:39;96182.09;;;15.92;100.00
41334;BME280;27078;46.428;6.256;2023-08-31T01:47:06;96184.03;;;15.98;100.00
41334;BME280;27078;46.428;6.256;2023-08-31T01:49:40;96183.38;;;15.96;100.00
41334;BME280;27078;46.428;6.256;2023-08-31T01:52:06;96192.03;;;15.98;100.00
41334;BME280;27078;46.428;6.256;2023-08-31T01:54:33;96191.84;;;16.00;100.00
41334;BME280;27078;46.428;6.256;2023-08-31T01:56:59;96193.03;;;15.97;100.00
41334;BME280;27078;46.428;6.256;2023-08-31T01:59:24;96193.25;;;15.87;100.00
41334;BME280;27078;46.428;6.256;2023-08-31T02:01:49;96193.97;;;15.81;100.00
41334;BME280;27078;46.428;6.256;2023-08-31T02:04:15;96201.63;;;15.76;100.00
41334;BME280;27078;46.428;6.256;2023-08-31T02:06:40;96198.50;;;15.64;100.00
41334;BME280;27078;46.428;6.256;2023-08-31T02:09:06;96195.53;;;15.59;100.00
41334;BME280;27078;46.428;6.256;2023-08-31T02:11:31;96189.91;;;15.54;100.00
41334;BME280;27078;46.428;6.256;2023-08-31T02:13:58;96190.22;;;15.51;100.00
41334;BME280;27078;46.428;6.256;2023-08-31T02:16:23;96195.75;;;15.50;100.00
41334;BME280;27078;46.428;6.256;2023-08-31T02:18:49;96196.91;;;15.47;100.00
41334;BME280;27078;46.428;6.256;2023-08-31T02:21:14;96201.13;;;15.33;100.00
41334;BME280;27078;46.428;6.256;2023-08-31T02:23:39;96207.66;;;15.22;100.00
41334;BME280;27078;46.428;6.256;2023-08-31T02:26:05;96193.53;;;15.22;100.00
41334;BME280;27078;46.428;6.256;2023-08-31T02:28:30;96190.00;;;15.30;100.00
41334;BME280;27078;46.428;6.256;2023-08-31T02:31:00;96194.13;;;15.32;100.00
41334;BME280;27078;46.428;6.256;2023-08-31T02:33:26;96192.47;;;15.39;100.00
41334;BME280;27078;46.428;6.256;2023-08-31T02:35:56;96195.38;;;15.53;100.00
41334;BME280;27078;46.428;6.256;2023-08-31T02:38:22;96194.34;;;15.62;100.00
41334;BME280;27078;46.428;6.256;2023-08-31T02:40:47;96202.16;;;15.63;100.00
41334;BME280;27078;46.428;6.256;2023-08-31T02:43:14;96195.06;;;15.56;100.00
41334;BME280;27078;46.428;6.256;2023-08-31T02:45:39;96200.69;;;15.61;100.00
41334;BME280;27078;46.428;6.256;2023-08-31T02:48:07;96198.19;;;15.59;100.00
41334;BME280;27078;46.428;6.256;2023-08-31T02:50:34;96200.75;;;15.44;100.00
41334;BME280;27078;46.428;6.256;2023-08-31T02:52:59;96184.31;;;15.41;100.00
41334;BME280;27078;46.428;6.256;2023-08-31T02:55:25;96190.31;;;15.35;100.00
41334;BME280;27078;46.428;6.256;2023-08-31T02:57:50;96180.34;;;15.37;100.00
41334;BME280;27078;46.428;6.256;2023-08-31T03:00:16;96178.78;;;15.42;100.00
41334;BME280;27078;46.428;6.256;2023-08-31T03:02:41;96182.44;;;15.50;100.00
41334;BME280;27078;46.428;6.256;2023-08-31T03:05:08;96184.44;;;15.47;100.00
41334;BME280;27078;46.428;6.256;2023-08-31T03:07:34;96186.25;;;15.47;100.00
41334;BME280;27078;46.428;6.256;2023-08-31T03:09:59;96178.59;;;15.52;100.00
41334;BME280;27078;46.428;6.256;2023-08-31T03:12:24;96184.06;;;15.59;100.00
41334;BME280;27078;46.428;6.256;2023-08-31T03:14:50;96174.84;;;15.70;100.00
41334;BME280;27078;46.428;6.256;2023-08-31T03:17:15;96183.69;;;15.62;100.00
41334;BME280;27078;46.428;6.256;2023-08-31T03:19:41;96187.38;;;15.61;100.00
41334;BME280;27078;46.428;6.256;2023-08-31T03:22:06;96182.56;;;15.56;100.00
41334;BME280;27078;46.428;6.256;2023-08-31T03:24:35;96187.22;;;15.62;100.00
41334;BME280;27078;46.428;6.256;2023-08-31T03:27:00;96182.53;;;15.64;100.00
41334;BME280;27078;46.428;6.256;2023-08-31T03:29:25;96181.34;;;15.67;100.00
41334;BME280;27078;46.428;6.256;2023-08-31T03:31:51;96175.38;;;15.73;100.00
41334;BME280;27078;46.428;6.256;2023-08-31T03:34:16;96178.31;;;15.70;100.00
41334;BME280;27078;46.428;6.256;2023-08-31T03:36:42;96185.19;;;15.73;100.00
41334;BME280;27078;46.428;6.256;2023-08-31T03:39:08;96182.53;;;15.64;100.00
41334;BME280;27078;46.428;6.256;2023-08-31T03:41:34;96186.25;;;15.47;100.00
41334;BME280;27078;46.428;6.256;2023-08-31T03:44:00;96184.34;;;15.33;100.00
41334;BME280;27078;46.428;6.256;2023-08-31T03:46:26;96189.84;;;15.23;100.00
41334;BME280;27078;46.428;6.256;2023-08-31T03:48:51;96189.72;;;15.16;100.00
41334;BME280;27078;46.428;6.256;2023-08-31T03:51:17;96201.03;;;15.10;100.00
41334;BME280;27078;46.428;6.256;2023-08-31T03:53:42;96200.06;;;15.03;100.00
41334;BME280;27078;46.428;6.256;2023-08-31T03:56:09;96207.03;;;14.96;100.00
41334;BME280;27078;46.428;6.256;2023-08-31T03:58:34;96207.91;;;14.88;100.00
41334;BME280;27078;46.428;6.256;2023-08-31T04:00:59;96207.41;;;14.84;100.00
41334;BME280;27078;46.428;6.256;2023-08-31T04:03:25;96204.06;;;14.82;100.00
41334;BME280;27078;46.428;6.256;2023-08-31T04:05:54;96210.41;;;14.73;100.00
41334;BME280;27078;46.428;6.256;2023-08-31T04:08:20;96209.91;;;14.70;100.00
41334;BME280;27078;46.428;6.256;2023-08-31T04:10:45;96213.03;;;14.81;100.00
41334;BME280;27078;46.428;6.256;2023-08-31T04:13:11;96213.03;;;14.90;100.00
41334;BME280;27078;46.428;6.256;2023-08-31T04:15:36;96216.69;;;14.89;100.00
41334;BME280;27078;46.428;6.256;2023-08-31T04:18:01;96221.00;;;14.90;100.00
41334;BME280;27078;46.428;6.256;2023-08-31T04:20:27;96228.47;;;14.94;100.00
41334;BME280;27078;46.428;6.256;2023-08-31T04:22:54;96232.63;;;15.05;100.00
41334;BME280;27078;46.428;6.256;2023-08-31T04:25:19;96240.25;;;15.08;100.00
41334;BME280;27078;46.428;6.256;2023-08-31T04:27:45;96233.75;;;15.11;100.00
41334;BME280;27078;46.428;6.256;2023-08-31T04:30:11;96235.91;;;15.15;100.00
41334;BME280;27078;46.428;6.256;2023-08-31T04:32:37;96234.75;;;15.18;100.00
41334;BME280;27078;46.428;6.256;2023-08-31T04:35:03;96235.91;;;15.15;100.00
41334;BME280;27078;46.428;6.256;2023-08-31T04:37:31;96237.91;;;15.13;100.00
41334;BME280;27078;46.428;6.256;2023-08-31T04:39:57;96242.91;;;15.16;100.00
41334;BME280;27078;46.428;6.256;2023-08-31T04:42:23;96239.59;;;15.14;100.00
41334;BME280;27078;46.428;6.256;2023-08-31T04:44:49;96251.72;;;15.09;100.00
41334;BME280;27078;46.428;6.256;2023-08-31T04:47:14;96253.88;;;15.13;100.00
41334;BME280;27078;46.428;6.256;2023-08-31T04:49:39;96249.22;;;15.15;100.00
41334;BME280;27078;46.428;6.256;2023-08-31T04:52:05;96255.19;;;15.17;100.00
41334;BME280;27078;46.428;6.256;2023-08-31T04:54:30;96254.50;;;15.23;100.00
41334;BME280;27078;46.428;6.256;2023-08-31T04:56:56;96265.50;;;15.20;100.00
41334;BME280;27078;46.428;6.256;2023-08-31T04:59:21;96269.50;;;15.16;100.00
41334;BME280;27078;46.428;6.256;2023-08-31T05:01:46;96271.81;;;15.11;100.00
41334;BME280;27078;46.428;6.256;2023-08-31T05:04:12;96277.13;;;15.11;100.00
41334;BME280;27078;46.428;6.256;2023-08-31T05:06:37;96269.50;;;15.16;100.00
41334;BME280;27078;46.428;6.256;2023-08-31T05:09:03;96274.16;;;15.14;100.00
41334;BME280;27078;46.428;6.256;2023-08-31T05:11:29;96277.81;;;15.13;100.00
41334;BME280;27078;46.428;6.256;2023-08-31T05:13:54;96282.47;;;15.11;100.00
41334;BME280;27078;46.428;6.256;2023-08-31T05:16:19;96288.63;;;15.12;100.00
41334;BME280;27078;46.428;6.256;2023-08-31T05:18:45;96286.13;;;15.10;100.00
41334;BME280;27078;46.428;6.256;2023-08-31T05:21:10;96293.28;;;15.10;100.00
41334;BME280;27078;46.428;6.256;2023-08-31T05:23:35;96290.47;;;15.03;100.00
41334;BME280;27078;46.428;6.256;2023-08-31T05:26:02;96285.16;;;15.03;100.00
41334;BME280;27078;46.428;6.256;2023-08-31T05:28:27;96288.47;;;15.05;100.00
41334;BME280;27078;46.428;6.256;2023-08-31T05:30:55;96296.47;;;15.05;100.00
41334;BME280;27078;46.428;6.256;2023-08-31T05:33:20;96308.44;;;15.01;100.00
41334;BME280;27078;46.428;6.256;2023-08-31T05:35:47;96302.09;;;15.10;100.00
41334;BME280;27078;46.428;6.256;2023-08-31T05:38:13;96313.53;;;15.19;100.00
41334;BME280;27078;46.428;6.256;2023-08-31T05:40:38;96305.06;;;15.15;100.00
41334;BME280;27078;46.428;6.256;2023-08-31T05:43:04;96308.72;;;15.14;100.00
41334;BME280;27078;46.428;6.256;2023-08-31T05:45:33;96303.41;;;15.06;100.00
41334;BME280;27078;46.428;6.256;2023-08-31T05:47:59;96303.56;;;14.96;100.00
41334;BME280;27078;46.428;6.256;2023-08-31T05:50:25;96296.47;;;14.97;100.00
41334;BME280;27078;46.428;6.256;2023-08-31T05:52:50;96294.13;;;14.94;100.00
41334;BME280;27078;46.428;6.256;2023-08-31T05:55:32;96305.09;;;14.91;100.00
41334;BME280;27078;46.428;6.256;2023-08-31T05:57:58;96308.59;;;14.91;100.00
41334;BME280;27078;46.428;6.256;2023-08-31T06:00:23;96307.41;;;14.94;100.00
41334;BME280;27078;46.428;6.256;2023-08-31T06:02:48;96307.06;;;15.13;100.00
41334;BME280;27078;46.428;6.256;2023-08-31T06:05:14;96313.22;;;15.14;100.00
41334;BME280;27078;46.428;6.256;2023-08-31T06:07:42;96314.06;;;15.06;100.00
41334;BME280;27078;46.428;6.256;2023-08-31T06:10:08;96316.41;;;15.09;100.00
41334;BME280;27078;46.428;6.256;2023-08-31T06:12:33;96312.06;;;15.24;100.00
41334;BME280;27078;46.428;6.256;2023-08-31T06:14:58;96320.03;;;15.33;100.00
41334;BME280;27078;46.428;6.256;2023-08-31T06:17:25;96321.97;;;15.47;100.00
41334;BME280;27078;46.428;6.256;2023-08-31T06:19:50;96321.47;;;15.52;100.00
41334;BME280;27078;46.428;6.256;2023-08-31T06:22:16;96322.44;;;15.59;100.00
41334;BME280;27078;46.428;6.256;2023-08-31T06:24:41;96335.25;;;15.63;100.00
41334;BME280;27078;46.428;6.256;2023-08-31T06:27:07;96341.56;;;15.71;100.00
41334;BME280;27078;46.428;6.256;2023-08-31T06:29:32;96332.59;;;15.72;100.00
41334;BME280;27078;46.428;6.256;2023-08-31T06:31:58;96341.56;;;15.71;100.00
41334;BME280;27078;46.428;6.256;2023-08-31T06:34:23;96343.25;;;15.72;100.00
41334;BME280;27078;46.428;6.256;2023-08-31T06:36:48;96344.41;;;15.77;100.00
41334;BME280;27078;46.428;6.256;2023-08-31T06:39:14;96343.06;;;15.81;100.00
41334;BME280;27078;46.428;6.256;2023-08-31T06:41:40;96345.69;;;15.90;100.00
41334;BME280;27078;46.428;6.256;2023-08-31T06:44:06;96330.16;;;16.01;100.00
41334;BME280;27078;46.428;6.256;2023-08-31T06:46:31;96342.44;;;16.11;100.00
41334;BME280;27078;46.428;6.256;2023-08-31T06:49:06;96339.53;;;16.28;100.00
41334;BME280;27078;46.428;6.256;2023-08-31T06:51:34;96339.97;;;16.40;100.00
41334;BME280;27078;46.428;6.256;2023-08-31T06:54:00;96342.56;;;16.48;100.00
41334;BME280;27078;46.428;6.256;2023-08-31T06:56:32;96337.44;;;16.47;100.00
41334;BME280;27078;46.428;6.256;2023-08-31T06:58:58;96334.44;;;16.42;100.00
41334;BME280;27078;46.428;6.256;2023-08-31T07:01:23;96331.31;;;16.38;100.00
41334;BME280;27078;46.428;6.256;2023-08-31T07:03:48;96337.47;;;16.39;100.00
41334;BME280;27078;46.428;6.256;2023-08-31T07:06:14;96334.41;;;16.50;100.00
41334;BME280;27078;46.428;6.256;2023-08-31T07:08:39;96326.19;;;16.60;100.00
41334;BME280;27078;46.428;6.256;2023-08-31T07:11:06;96325.28;;;16.67;100.00
41334;BME280;27078;46.428;6.256;2023-08-31T07:13:31;96328.06;;;16.74;100.00
41334;BME280;27078;46.428;6.256;2023-08-31T07:15:57;96332.38;;;16.83;100.00
41334;BME280;27078;46.428;6.256;2023-08-31T07:18:22;96337.47;;;16.93;100.00
41334;BME280;27078;46.428;6.256;2023-08-31T07:20:48;96343.75;;;17.00;100.00
41334;BME280;27078;46.428;6.256;2023-08-31T07:23:13;96345.50;;;17.08;100.00
41334;BME280;27078;46.428;6.256;2023-08-31T07:25:39;96351.44;;;17.18;100.00
41334;BME280;27078;46.428;6.256;2023-08-31T07:28:04;96361.50;;;17.31;100.00
41334;BME280;27078;46.428;6.256;2023-08-31T07:30:30;96364.31;;;17.38;100.00
41334;BME280;27078;46.428;6.256;2023-08-31T07:32:55;96366.59;;;17.41;100.00
41334;BME280;27078;46.428;6.256;2023-08-31T07:35:21;96373.72;;;17.48;100.00
41334;BME280;27078;46.428;6.256;2023-08-31T07:37:46;96379.59;;;17.59;100.00
41334;BME280;27078;46.428;6.256;2023-08-31T07:40:11;96383.69;;;17.69;100.00
41334;BME280;27078;46.428;6.256;2023-08-31T07:42:37;96381.25;;;17.83;100.00
41334;BME280;27078;46.428;6.256;2023-08-31T07:45:03;96373.16;;;17.91;100.00
41334;BME280;27078;46.428;6.256;2023-08-31T07:47:30;96380.50;;;18.04;100.00
41334;BME280;27078;46.428;6.256;2023-08-31T07:49:56;96368.88;;;18.11;100.00
41334;BME280;27078;46.428;6.256;2023-08-31T07:52:21;96373.88;;;18.15;100.00
41334;BME280;27078;46.428;6.256;2023-08-31T07:54:46;96378.09;;;18.24;100.00
41334;BME280;27078;46.428;6.256;2023-08-31T07:57:12;96379.78;;;18.25;100.00
41334;BME280;27078;46.428;6.256;2023-08-31T07:59:37;96391.38;;;18.32;100.00
41334;BME280;27078;46.428;6.256;2023-08-31T08:02:05;96389.41;;;18.41;100.00
41334;BME280;27078;46.428;6.256;2023-08-31T08:04:30;96398.91;;;18.43;100.00
41334;BME280;27078;46.428;6.256;2023-08-31T08:06:56;96400.25;;;18.54;100.00
41334;BME280;27078;46.428;6.256;2023-08-31T08:09:21;96399.97;;;18.64;100.00
41334;BME280;27078;46.428;6.256;2023-08-31T08:11:46;96393.88;;;18.70;100.00
41334;BME280;27078;46.428;6.256;2023-08-31T08:14:12;96397.13;;;18.80;100.00
41334;BME280;27078;46.428;6.256;2023-08-31T08:16:37;96401.13;;;18.91;100.00
41334;BME280;27078;46.428;6.256;2023-08-31T08:19:03;96393.69;;;19.08;100.00
41334;BME280;27078;46.428;6.256;2023-08-31T08:21:28;96390.50;;;19.19;100.00
41334;BME280;27078;46.428;6.256;2023-08-31T08:23:53;96392.41;;;19.25;100.00
41334;BME280;27078;46.428;6.256;2023-08-31T08:26:19;96391.97;;;19.22;100.00
41334;BME280;27078;46.428;6.256;2023-08-31T08:28:44;96389.75;;;19.25;100.00
41334;BME280;27078;46.428;6.256;2023-08-31T08:31:11;96395.34;;;19.30;100.00
41334;BME280;27078;46.428;6.256;2023-08-31T08:33:36;96392.09;;;19.35;100.00
41334;BME280;27078;46.428;6.256;2023-08-31T08:36:01;96387.16;;;19.39;100.00
41334;BME280;27078;46.428;6.256;2023-08-31T08:38:27;96387.81;;;19.41;100.00
41334;BME280;27078;46.428;6.256;2023-08-31T08:40:53;96399.16;;;19.43;100.00
41334;BME280;27078;46.428;6.256;2023-08-31T08:43:24;96401.19;;;19.41;100.00
41334;BME280;27078;46.428;6.256;2023-08-31T08:45:50;96412.34;;;19.44;100.00
41334;BME280;27078;46.428;6.256;2023-08-31T08:48:17;96411.59;;;19.50;100.00
41334;BME280;27078;46.428;6.256;2023-08-31T08:50:44;96417.44;;;19.61;100.00
41334;BME280;27078;46.428;6.256;2023-08-31T08:53:10;96412.03;;;19.76;100.00
41334;BME280;27078;46.428;6.256;2023-08-31T08:55:36;96418.47;;;19.81;100.00
41334;BME280;27078;46.428;6.256;2023-08-31T08:58:02;96416.25;;;19.91;97.31
41334;BME280;27078;46.428;6.256;2023-08-31T09:00:29;96415.47;;;19.98;98.81
41334;BME280;27078;46.428;6.256;2023-08-31T09:02:55;96420.63;;;19.99;97.27
41334;BME280;27078;46.428;6.256;2023-08-31T09:05:21;96428.03;;;19.97;99.53
41334;BME280;27078;46.428;6.256;2023-08-31T09:08:09;96421.69;;;19.98;100.00
41334;BME280;27078;46.428;6.256;2023-08-31T09:10:42;96418.41;;;20.03;100.00
41334;BME280;27078;46.428;6.256;2023-08-31T09:13:12;96414.94;;;20.09;99.50
41334;BME280;27078;46.428;6.256;2023-08-31T09:15:48;96416.63;;;20.17;100.00
41334;BME280;27078;46.428;6.256;2023-08-31T09:18:24;96414.09;;;20.08;99.14
41334;BME280;27078;46.428;6.256;2023-08-31T09:20:50;96415.31;;;20.06;100.00
41334;BME280;27078;46.428;6.256;2023-08-31T09:23:17;96426.84;;;20.06;100.00
41334;BME280;27078;46.428;6.256;2023-08-31T09:25:46;96425.69;;;20.16;100.00
41334;BME280;27078;46.428;6.256;2023-08-31T09:28:14;96433.56;;;20.17;100.00
41334;BME280;27078;46.428;6.256;2023-08-31T09:30:39;96433.97;;;20.21;100.00
41334;BME280;27078;46.428;6.256;2023-08-31T09:33:14;96423.81;;;20.09;96.57
41334;BME280;27078;46.428;6.256;2023-08-31T09:36:07;96428.38;;;20.16;100.00
41334;BME280;27078;46.428;6.256;2023-08-31T09:38:31;96433.78;;;20.22;95.23
41334;BME280;27078;46.428;6.256;2023-08-31T09:41:06;96434.84;;;20.28;97.18
41334;BME280;27078;46.428;6.256;2023-08-31T09:43:32;96440.25;;;20.34;96.78
41334;BME280;27078;46.428;6.256;2023-08-31T09:45:59;96427.88;;;20.40;96.91
41334;BME280;27078;46.428;6.256;2023-08-31T09:48:26;96435.72;;;20.35;97.12
41334;BME280;27078;46.428;6.256;2023-08-31T09:50:52;96437.16;;;20.38;93.05
41334;BME280;27078;46.428;6.256;2023-08-31T09:53:19;96431.19;;;20.42;96.48
41334;BME280;27078;46.428;6.256;2023-08-31T09:55:47;96431.28;;;20.56;98.87
41334;BME280;27078;46.428;6.256;2023-08-31T09:58:17;96435.06;;;20.68;91.81
41334;BME280;27078;46.428;6.256;2023-08-31T10:00:43;96424.59;;;20.80;94.63
41334;BME280;27078;46.428;6.256;2023-08-31T10:03:09;96425.88;;;20.90;92.85
41334;BME280;27078;46.428;6.256;2023-08-31T10:05:39;96424.44;;;21.01;88.79
41334;BME280;27078;46.428;6.256;2023-08-31T10:08:05;96420.34;;;21.12;86.02
41334;BME280;27078;46.428;6.256;2023-08-31T10:10:33;96423.44;;;21.09;85.16
41334;BME280;27078;46.428;6.256;2023-08-31T10:12:59;96422.00;;;21.06;83.93
41334;BME280;27078;46.428;6.256;2023-08-31T10:15:26;96410.84;;;21.03;81.12
41334;BME280;27078;46.428;6.256;2023-08-31T10:17:55;96416.81;;;21.05;86.61
41334;BME280;27078;46.428;6.256;2023-08-31T10:20:20;96417.66;;;21.05;86.07
41334;BME280;27078;46.428;6.256;2023-08-31T10:22:45;96417.44;;;21.00;87.19
41334;BME280;27078;46.428;6.256;2023-08-31T10:25:11;96414.13;;;20.91;90.00
41334;BME280;27078;46.428;6.256;2023-08-31T10:27:38;96415.38;;;20.96;89.88
41334;BME280;27078;46.428;6.256;2023-08-31T10:35:51;96399.31;;;21.35;87.97
41334;BME280;27078;46.428;6.256;2023-08-31T10:38:27;96407.19;;;21.50;86.21
41334;BME280;27078;46.428;6.256;2023-08-31T10:41:17;96394.81;;;21.63;83.54
41334;BME280;27078;46.428;6.256;2023-08-31T10:43:44;96397.72;;;21.61;82.15
41334;BME280;27078;46.428;6.256;2023-08-31T10:46:27;96400.59;;;21.60;81.35
41334;BME280;27078;46.428;6.256;2023-08-31T10:51:29;96399.78;;;21.59;83.73
41334;BME280;27078;46.428;6.256;2023-08-31T10:54:11;96392.75;;;21.58;84.60
41334;BME280;27078;46.428;6.256;2023-08-31T10:57:02;96399.78;;;21.72;82.26
41334;BME280;27078;46.428;6.256;2023-08-31T10:59:52;96390.06;;;21.85;82.16
41334;BME280;27078;46.428;6.256;2023-08-31T11:05:18;96393.50;;;22.19;75.72
41334;BME280;27078;46.428;6.256;2023-08-31T11:07:50;96392.25;;;22.28;75.61
41334;BME280;27078;46.428;6.256;2023-08-31T11:10:20;96391.59;;;22.39;72.88
41334;BME280;27078;46.428;6.256;2023-08-31T11:12:50;96386.00;;;22.41;77.24
41334;BME280;27078;46.428;6.256;2023-08-31T11:15:18;96382.69;;;22.45;71.84
41334;BME280;27078;46.428;6.256;2023-08-31T11:17:45;96381.00;;;22.58;71.92
41334;BME280;27078;46.428;6.256;2023-08-31T11:20:16;96377.19;;;22.72;68.45
41334;BME280;27078;46.428;6.256;2023-08-31T11:22:43;96376.75;;;22.75;69.50
41334;BME280;27078;46.428;6.256;2023-08-31T11:25:10;96368.84;;;22.87;66.42
41334;BME280;27078;46.428;6.256;2023-08-31T11:27:36;96379.97;;;23.04;68.57
41334;BME280;27078;46.428;6.256;2023-08-31T11:30:03;96370.03;;;22.97;65.14
41334;BME280;27078;46.428;6.256;2023-08-31T11:32:29;96387.13;;;22.78;65.74
41334;BME280;27078;46.428;6.256;2023-08-31T11:34:54;96381.75;;;22.71;66.44
41334;BME280;27078;46.428;6.256;2023-08-31T11:37:19;96392.78;;;22.63;70.26
41334;BME280;27078;46.428;6.256;2023-08-31T11:39:50;96384.66;;;22.70;69.61
41334;BME280;27078;46.428;6.256;2023-08-31T11:42:18;96378.47;;;22.69;69.50
41334;BME280;27078;46.428;6.256;2023-08-31T11:44:49;96390.47;;;22.67;67.68
41334;BME280;27078;46.428;6.256;2023-08-31T11:47:16;96380.72;;;22.72;70.10
41334;BME280;27078;46.428;6.256;2023-08-31T11:49:42;96379.22;;;22.83;67.01
41334;BME280;27078;46.428;6.256;2023-08-31T11:52:09;96382.44;;;22.98;65.96
41334;BME280;27078;46.428;6.256;2023-08-31T11:54:37;96380.38;;;23.01;64.94
41334;BME280;27078;46.428;6.256;2023-08-31T11:57:06;96377.88;;;23.06;62.64
41334;BME280;27078;46.428;6.256;2023-08-31T11:59:34;96379.50;;;23.07;63.18
41334;BME280;27078;46.428;6.256;2023-08-31T12:02:00;96382.78;;;23.15;62.96
41334;BME280;27078;46.428;6.256;2023-08-31T12:04:25;96386.38;;;22.96;63.08
41334;BME280;27078;46.428;6.256;2023-08-31T12:06:51;96389.78;;;22.85;66.05
41334;BME280;27078;46.428;6.256;2023-08-31T12:09:19;96384.19;;;22.86;66.31
41334;BME280;27078;46.428;6.256;2023-08-31T12:11:51;96386.63;;;22.88;67.46
41334;BME280;27078;46.428;6.256;2023-08-31T12:14:24;96390.41;;;22.80;69.32
41334;BME280;27078;46.428;6.256;2023-08-31T12:16:50;96386.91;;;22.80;63.78
41334;BME280;27078;46.428;6.256;2023-08-31T12:19:16;96385.81;;;22.87;60.58
41334;BME280;27078;46.428;6.256;2023-08-31T12:21:43;96387.28;;;22.83;57.24
41334;BME280;27078;46.428;6.256;2023-08-31T12:24:09;96387.31;;;22.76;56.83
41334;BME280;27078;46.428;6.256;2023-08-31T12:26:35;96390.47;;;22.67;57.57
41334;BME280;27078;46.428;6.256;2023-08-31T12:29:00;96390.91;;;22.64;61.66
41334;BME280;27078;46.428;6.256;2023-08-31T12:31:26;96392.16;;;22.61;65.14
41334;BME280;27078;46.428;6.256;2023-08-31T12:33:51;96372.22;;;22.69;62.06
41334;BME280;27078;46.428;6.256;2023-08-31T12:36:17;96380.09;;;22.70;59.70
41334;BME280;27078;46.428;6.256;2023-08-31T12:38:42;96379.28;;;22.70;59.23
41334;BME280;27078;46.428;6.256;2023-08-31T12:41:08;96380.91;;;22.71;59.48
41334;BME280;27078;46.428;6.256;2023-08-31T12:43:34;96382.13;;;22.75;59.52
41334;BME280;27078;46.428;6.256;2023-08-31T12:46:00;96374.25;;;22.80;62.30
41334;BME280;27078;46.428;6.256;2023-08-31T12:48:26;96366.19;;;22.80;59.52
41334;BME280;27078;46.428;6.256;2023-08-31T12:50:51;96372.19;;;22.82;60.23
41334;BME280;27078;46.428;6.256;2023-08-31T12:53:20;96379.25;;;22.76;59.71
41334;BME280;27078;46.428;6.256;2023-08-31T12:55:46;96377.63;;;22.69;59.16
41334;BME280;27078;46.428;6.256;2023-08-31T12:58:11;96379.53;;;22.62;59.55
41334;BME280;27078;46.428;6.256;2023-08-31T13:00:36;96375.78;;;22.69;59.38
41334;BME280;27078;46.428;6.256;2023-08-31T13:03:02;96377.31;;;22.90;60.38
41334;BME280;27078;46.428;6.256;2023-08-31T13:05:28;96370.22;;;23.03;60.27
41334;BME280;27078;46.428;6.256;2023-08-31T13:07:54;96374.28;;;23.19;58.70
41334;BME280;27078;46.428;6.256;2023-08-31T13:10:20;96377.88;;;23.37;58.25